| time (UTC) | temp F | wind direction | speed MPH | gust MPH | rain 1hr in | rain 24hr in | rain mn in | humidity % | barometer mb |
| 20260504040025 | 41 | 277 | 0.0 | 0.0 | 0.00 | 0.00 | 0.00 | 81 | 1011.3 |
| 20260504034506 | 42 | 277 | 0.0 | 0.0 | 0.00 | 0.00 | 0.00 | 80 | 1011.1 |
| 20260504033046 | 42 | 277 | 0.0 | 0.0 | 0.00 | 0.00 | 0.00 | 79 | 1011.0 |
| 20260504031532 | 43 | 277 | 0.0 | 0.0 | 0.00 | 0.00 | 0.00 | 79 | 1010.9 |
| 20260504030018 | 43 | 277 | 0.0 | 0.0 | 0.00 | 0.00 | 0.00 | 78 | 1010.8 |
| 20260504024511 | 44 | 277 | 0.0 | 0.0 | 0.00 | 0.00 | 0.00 | 77 | 1010.8 |
| 20260504023045 | 45 | 277 | 0.0 | 0.0 | 0.00 | 0.00 | 0.00 | 75 | 1010.8 |
| 20260504021534 | 45 | 277 | 0.0 | 0.0 | 0.00 | 0.00 | 0.00 | 74 | 1010.9 |
| 20260504020017 | 46 | 277 | 0.0 | 0.0 | 0.00 | 0.00 | 0.00 | 72 | 1010.9 |
| 20260504014535 | 46 | 277 | 0.0 | 0.0 | 0.00 | 0.00 | 0.00 | 71 | 1010.8 |
| 20260504013021 | 48 | 277 | 0.0 | 0.0 | 0.00 | 0.00 | 0.00 | 68 | 1010.8 |
| 20260504011504 | 49 | 277 | 0.0 | 0.0 | 0.00 | 0.00 | 0.00 | 65 | 1010.7 |
| 20260504010048 | 51 | 277 | 0.0 | 0.0 | 0.00 | 0.00 | 0.00 | 62 | 1010.6 |
| 20260504004530 | 53 | 277 | 0.0 | 0.0 | 0.00 | 0.00 | 0.00 | 57 | 1010.4 |
| 20260504003019 | 55 | 277 | 1.0 | 0.0 | 0.00 | 0.00 | 0.00 | 53 | 1010.1 |
| 20260504001504 | 57 | 277 | 2.0 | 0.0 | 0.00 | 0.00 | 0.00 | 47 | 1009.9 |
| 20260504000046 | 58 | 292 | 2.0 | 0.0 | 0.00 | 0.00 | 0.00 | 41 | 1009.8 |
| 20260503234530 | 59 | 232 | 5.0 | 0.0 | 0.00 | 0.00 | 0.00 | 38 | 1009.6 |
| 20260503233017 | 59 | 298 | 6.0 | 0.0 | 0.00 | 0.00 | 0.00 | 38 | 1009.6 |
| 20260503231602 | 60 | 267 | 7.0 | 0.0 | 0.00 | 0.00 | 0.00 | 36 | 1009.3 |
| 20260503224536 | 61 | 269 | 4.0 | 0.0 | 0.00 | 0.00 | 0.00 | 37 | 1009.2 |
| 20260503223022 | 60 | 279 | 5.0 | 0.0 | 0.00 | 0.00 | 0.00 | 36 | 1009.3 |
| 20260503221510 | 61 | 238 | 8.0 | 0.0 | 0.00 | 0.00 | 0.00 | 35 | 1009.3 |
| 20260503220020 | 61 | 271 | 6.0 | 0.0 | 0.00 | 0.00 | 0.00 | 36 | 1009.3 |
| 20260503214533 | 60 | 306 | 6.0 | 0.0 | 0.00 | 0.00 | 0.00 | 36 | 1009.2 |
| 20260503213100 | 60 | 267 | 7.0 | 0.0 | 0.00 | 0.00 | 0.00 | 37 | 1009.1 |
| 20260503211604 | 60 | 355 | 4.0 | 0.0 | 0.00 | 0.00 | 0.00 | 37 | 1009.0 |
| 20260503210059 | 60 | 337 | 6.0 | 0.0 | 0.00 | 0.00 | 0.00 | 35 | 1009.0 |
| 20260503210001 | 61 | 259 | 6.0 | 0.0 | 0.00 | 0.00 | 0.00 | 36 | 1009.0 |
| 20260503204544 | 61 | 281 | 5.0 | 0.0 | 0.00 | 0.00 | 0.00 | 35 | 1009.0 |
| 20260503203027 | 61 | 266 | 8.0 | 0.0 | 0.00 | 0.00 | 0.00 | 35 | 1009.1 |
| 20260503201641 | 61 | 306 | 5.0 | 0.0 | 0.00 | 0.00 | 0.00 | 36 | 1009.2 |